LIPH/TSF METAR and TAF weather

Enter ICAO airport designator
Station Type Date Time Source
LIPH METAR 2019/12/10 19:50 UTC NOAA

LIPH 101950Z 04003KT CAVOK 05/M00 Q1022


Station Type Date Time Source
LIPH Decoded METAR 2019/12/10 19:50 UTC NOAA

Treviso / S. Angelo, Italy (LIPH) 45-39N 012-11E 23M
Dec 10, 2019 - 02:50 PM EST / 2019.12.10 1950 UTC
Wind: from the NE (040 degrees) at 3 MPH (3 KT):0
Visibility: greater than 7 mile(s):0
Temperature: 41 F (5 C)
Dew Point: 32 F (0 C)
Relative Humidity: 70%
Pressure (altimeter): 30.18 in. Hg (1022 hPa)
ob: LIPH 101950Z 04003KT CAVOK 05/M00 Q1022
cycle: 20

Station Type Date Time Source
LIPH TAF 2019/12/10 18:21 UTC NOAA

TAF LIPH 101700Z 1018/1118 VRB05KT CAVOK

Example: see airport list